Terminal Aerodrome Forecast
Issued by NWS

Home | Current Version | Previous Version | Text Only | Print | Product List | Glossary On
Versions: 1 2 3 4 5 6 7 8 9 10 11 12 13 14 15 16 17 18 19 20 21 22 23 24 25 26 27 28 29
997
FTPA31 PHFO 080540
TAFMDY
TAF
PMDY 080540Z 0806/0906 24014KT P6SM SCT035
     FM081800 27012KT P6SM VCSH SCT020 BKN035
     FM090300 32010KT P6SM VCSH SCT020 BKN035
      AMD NOT SKED=

USA.gov is the U.S. government's official web portal to all federal, state and local government web resources and services.